Time;durP1;ratioP1;P1;durP2;ratioP2;P2;SDS_P1;SDS_P2;PMS_P1;PMS_P2;Temp;Humidity;BMP_temperature;BMP_pressure;BME280_temperature;BME280_humidity;BME280_pressure;Samples;Min_cycle;Max_cycle;Signal;HPM_P1;HPM_P2
2021/06/09 00:00:29;;;;;;;8.80;7.68;;;;;;;19.37;71.15;100244.50;2225021;40;20048;-83
2021/06/09 00:02:02;;;;;;;9.23;7.65;;;;;;;19.35;71.26;100243.88;2226870;40;20368;-83
2021/06/09 00:03:34;;;;;;;8.48;7.50;;;;;;;19.34;71.56;100242.19;2225129;40;20045;-84
2021/06/09 00:05:06;;;;;;;10.23;7.20;;;;;;;19.34;71.54;100239.50;2226784;40;20040;-85
2021/06/09 00:06:38;;;;;;;12.00;7.88;;;;;;;19.34;71.67;100239.50;2225586;40;20033;-84
2021/06/09 00:08:10;;;;;;;11.48;8.13;;;;;;;19.31;71.79;100245.31;2227443;40;20093;-85
2021/06/09 00:09:41;;;;;;;11.48;8.35;;;;;;;19.27;71.56;100244.84;2226101;40;20427;-84
2021/06/09 00:11:12;;;;;;;9.43;8.10;;;;;;;19.22;72.16;100249.19;2227124;40;20037;-85
2021/06/09 00:12:43;;;;;;;10.52;8.35;;;;;;;19.18;72.07;100246.88;2225256;40;20049;-83
2021/06/09 00:14:16;;;;;;;10.25;8.45;;;;;;;19.15;72.22;100247.28;2227305;40;20053;-83
2021/06/09 00:15:47;;;;;;;9.93;7.85;;;;;;;19.08;72.58;100242.84;2225927;40;20353;-83
2021/06/09 00:17:20;;;;;;;10.65;8.98;;;;;;;19.07;72.63;100250.13;2227563;40;20100;-84
2021/06/09 00:18:51;;;;;;;9.13;8.00;;;;;;;19.04;72.83;100250.50;2226221;40;20135;-84
2021/06/09 00:20:24;;;;;;;8.98;8.07;;;;;;;19.05;72.79;100238.66;2227244;40;20049;-84
2021/06/09 00:21:56;;;;;;;12.77;9.05;;;;;;;19.05;72.86;100246.78;2225957;40;20097;-85
2021/06/09 00:23:30;;;;;;;9.73;8.73;;;;;;;19.04;72.77;100241.53;2227715;40;20029;-83
2021/06/09 00:25:01;;;;;;;10.05;8.88;;;;;;;19.04;72.67;100238.81;2226317;40;20033;-85
2021/06/09 00:26:32;;;;;;;9.63;8.63;;;;;;;19.04;73.01;100241.53;2228282;40;20049;-86
2021/06/09 00:28:05;;;;;;;11.10;8.73;;;;;;;19.00;72.77;100239.25;2226371;40;20053;-86
2021/06/09 00:29:36;;;;;;;9.82;8.13;;;;;;;19.00;72.79;100247.38;2227819;40;20049;-84
2021/06/09 00:31:08;;;;;;;10.73;7.68;;;;;;;19.00;73.31;100243.81;2226754;40;20476;-86
2021/06/09 00:32:41;;;;;;;8.38;7.13;;;;;;;19.01;73.28;100250.91;2227969;40;20040;-84
2021/06/09 00:34:12;;;;;;;8.60;7.50;;;;;;;19.02;72.96;100248.00;2226599;40;20043;-83
2021/06/09 00:35:45;;;;;;;10.10;7.65;;;;;;;19.04;73.02;100245.09;2227923;40;20028;-86
2021/06/09 00:37:15;;;;;;;9.85;8.10;;;;;;;19.06;72.82;100242.19;2226625;40;20457;-86
2021/06/09 00:38:47;;;;;;;10.00;7.97;;;;;;;19.03;72.97;100243.41;2227992;40;20036;-86
2021/06/09 00:40:18;;;;;;;9.38;8.05;;;;;;;19.01;72.71;100235.50;2226650;40;20037;-85
2021/06/09 00:41:50;;;;;;;8.88;7.97;;;;;;;18.99;72.85;100244.84;2227979;40;20045;-86
2021/06/09 00:43:23;;;;;;;9.93;8.82;;;;;;;19.00;72.79;100238.38;2226658;40;20459;-86
2021/06/09 00:44:54;;;;;;;9.90;8.07;;;;;;;18.98;72.86;100241.31;2228006;40;20087;-86
2021/06/09 00:46:32;;;;;;;10.88;8.07;;;;;;;18.99;72.92;100236.69;2226753;40;20037;-85
2021/06/09 00:48:06;;;;;;;9.95;8.15;;;;;;;18.96;72.77;100250.66;2228050;40;20460;-86
2021/06/09 00:49:38;;;;;;;8.15;7.10;;;;;;;18.96;73.20;100232.53;2226820;40;20032;-86
2021/06/09 00:51:12;;;;;;;9.95;6.82;;;;;;;18.97;72.90;100239.63;2226537;40;20029;-86
2021/06/09 00:52:44;;;;;;;8.32;7.03;;;;;;;18.96;72.75;100242.53;2228209;40;20033;-85
2021/06/09 00:54:15;;;;;;;8.65;7.50;;;;;;;18.97;73.08;100244.22;2226367;40;20062;-85
2021/06/09 00:55:46;;;;;;;9.27;7.55;;;;;;;19.00;72.82;100243.81;2227926;40;20044;-86
2021/06/09 00:57:19;;;;;;;8.23;7.18;;;;;;;18.99;72.92;100247.53;2226692;40;20029;-86
2021/06/09 00:58:52;;;;;;;9.75;7.85;;;;;;;19.00;73.01;100239.25;2234173;40;20087;-85
2021/06/09 01:00:24;;;;;;;9.07;7.35;;;;;;;19.00;72.88;100243.81;2232414;40;20040;-85
2021/06/09 01:01:55;;;;;;;7.95;6.55;;;;;;;19.01;72.84;100245.47;2234114;40;20081;-86
2021/06/09 01:03:28;;;;;;;10.15;7.97;;;;;;;19.01;73.07;100251.75;2233023;40;20345;-87
2021/06/09 01:04:59;;;;;;;8.25;6.68;;;;;;;19.00;73.08;100249.22;2234213;40;20032;-86
2021/06/09 01:06:31;;;;;;;9.85;7.25;;;;;;;19.00;73.13;100241.09;2226764;40;20053;-86
2021/06/09 01:08:03;;;;;;;9.27;7.45;;;;;;;19.02;73.28;100253.44;2228129;40;20025;-85
2021/06/09 01:09:34;;;;;;;10.10;7.00;;;;;;;19.02;72.94;100263.41;2226435;40;20029;-85
2021/06/09 01:11:07;;;;;;;9.98;7.65;;;;;;;18.99;72.90;100253.81;2227901;40;20032;-86
2021/06/09 01:12:39;;;;;;;9.50;7.63;;;;;;;19.01;72.80;100264.44;2226592;40;20037;-85
2021/06/09 01:14:10;;;;;;;9.88;7.90;;;;;;;18.95;73.08;100259.81;2227918;40;20032;-85
2021/06/09 01:15:41;;;;;;;11.18;8.70;;;;;;;18.86;72.89;100259.91;2226481;40;20392;-86
2021/06/09 01:17:12;;;;;;;9.95;8.95;;;;;;;18.77;73.35;100258.38;2227930;40;20036;-85
2021/06/09 01:18:45;;;;;;;12.75;8.75;;;;;;;18.66;73.63;100251.59;2226422;40;20380;-85
2021/06/09 01:20:16;;;;;;;10.55;8.07;;;;;;;18.61;74.08;100251.34;2227962;40;20033;-85
2021/06/09 01:21:49;;;;;;;12.80;8.30;;;;;;;18.58;74.09;100257.13;2226900;40;20044;-85
2021/06/09 01:23:21;;;;;;;10.02;7.90;;;;;;;18.60;73.88;100255.06;2228076;40;20108;-85
2021/06/09 01:24:52;;;;;;;10.20;8.50;;;;;;;18.59;74.06;100252.56;2226464;40;20032;-85
2021/06/09 01:26:26;;;;;;;8.95;8.02;;;;;;;18.57;74.10;100243.81;2227751;40;20033;-85
2021/06/09 01:27:58;;;;;;;9.85;8.48;;;;;;;18.53;74.15;100252.28;2226462;40;20044;-85
2021/06/09 01:29:29;;;;;;;11.57;8.00;;;;;;;18.55;74.20;100250.25;2227827;40;20084;-84
2021/06/09 01:31:01;;;;;;;8.15;7.13;;;;;;;18.58;74.02;100246.31;2226377;40;20037;-84
2021/06/09 01:32:32;;;;;;;9.35;8.35;;;;;;;18.65;73.92;100257.19;2227951;40;20041;-87
2021/06/09 01:34:05;;;;;;;13.02;9.25;;;;;;;18.63;74.11;100253.84;2226275;40;20112;-86
2021/06/09 01:35:36;;;;;;;12.05;8.50;;;;;;;18.57;74.01;100255.44;2227907;40;20493;-86
2021/06/09 01:37:09;;;;;;;10.50;8.65;;;;;;;18.52;74.28;100261.44;2226779;40;20056;-85
2021/06/09 01:38:41;;;;;;;11.50;8.52;;;;;;;18.47;74.33;100250.38;2227468;40;20044;-84
2021/06/09 01:40:15;;;;;;;10.75;8.52;;;;;;;18.46;74.57;100255.97;2226381;40;20032;-87
2021/06/09 01:41:48;;;;;;;10.13;8.90;;;;;;;18.40;75.16;100260.28;2227895;40;20032;-86
2021/06/09 01:43:19;;;;;;;10.80;9.23;;;;;;;18.39;74.99;100259.44;2226708;40;20115;-85
2021/06/09 01:44:50;;;;;;;13.30;9.85;;;;;;;18.37;75.42;100258.78;2227548;40;20037;-85
2021/06/09 01:46:23;;;;;;;9.27;8.30;;;;;;;18.34;75.59;100255.63;2226857;40;20040;-85
2021/06/09 01:47:55;;;;;;;9.98;8.43;;;;;;;18.32;75.33;100263.13;2228764;40;20512;-86
2021/06/09 01:49:27;;;;;;;11.90;10.25;;;;;;;18.26;75.44;100259.28;2227431;40;20186;-85
2021/06/09 01:50:58;;;;;;;14.50;10.30;;;;;;;18.23;75.65;100260.50;2227083;40;20041;-84
2021/06/09 01:52:31;;;;;;;10.90;9.80;;;;;;;18.19;75.54;100261.91;2225790;40;20072;-82
2021/06/09 01:54:03;;;;;;;10.50;9.40;;;;;;;18.19;75.49;100259.22;2227066;40;20049;-84
2021/06/09 01:55:36;;;;;;;11.65;10.40;;;;;;;18.20;75.77;100260.03;2226294;40;20672;-83
2021/06/09 01:57:08;;;;;;;10.98;8.43;;;;;;;18.19;75.84;100263.78;2226384;40;20445;-83
2021/06/09 01:58:39;;;;;;;10.80;9.13;;;;;;;18.18;75.68;100262.94;2226174;40;20041;-82
2021/06/09 02:00:14;;;;;;;10.85;9.75;;;;;;;18.20;75.94;100251.91;2226373;40;20444;-84
2021/06/09 02:01:46;;;;;;;15.50;10.45;;;;;;;18.15;75.90;100248.97;2228740;40;20562;-85
2021/06/09 02:03:17;;;;;;;11.27;9.27;;;;;;;18.15;75.89;100257.91;2227587;40;20033;-85
2021/06/09 02:04:49;;;;;;;9.80;8.65;;;;;;;18.15;76.11;100254.38;2228685;40;20041;-82
2021/06/09 02:06:20;;;;;;;12.82;10.00;;;;;;;18.15;75.98;100251.66;2226668;40;20037;-83
2021/06/09 02:07:53;;;;;;;12.25;11.05;;;;;;;18.11;76.06;100251.22;2227173;40;20095;-83
2021/06/09 02:09:24;;;;;;;12.77;9.05;;;;;;;18.09;76.15;100253.25;2225803;40;20033;-85
2021/06/09 02:10:55;;;;;;;13.00;10.32;;;;;;;18.09;76.37;100259.50;2227834;40;20027;-83
2021/06/09 02:12:26;;;;;;;11.02;8.45;;;;;;;18.09;76.16;100253.25;2226257;40;20033;-83
2021/06/09 02:13:58;;;;;;;12.70;10.95;;;;;;;18.06;76.55;100245.50;2227505;40;20037;-84
2021/06/09 02:15:29;;;;;;;10.77;9.65;;;;;;;18.07;76.26;100248.03;2226090;40;20052;-84
2021/06/09 02:17:00;;;;;;;10.77;9.18;;;;;;;18.09;76.44;100245.13;2228444;40;20021;-86
2021/06/09 02:18:32;;;;;;;12.43;9.82;;;;;;;18.13;76.67;100249.16;2226765;40;20048;-84
2021/06/09 02:20:04;;;;;;;10.32;9.27;;;;;;;18.15;76.42;100248.97;2228372;40;20037;-87
2021/06/09 02:21:37;;;;;;;10.82;9.68;;;;;;;18.15;76.63;100249.78;2227398;40;20033;-84
2021/06/09 02:23:11;;;;;;;13.05;11.43;;;;;;;18.12;76.48;100254.75;2228749;40;20025;-84
2021/06/09 02:24:43;;;;;;;10.50;9.18;;;;;;;18.14;76.83;100252.69;2227263;40;20057;-85
2021/06/09 02:26:14;;;;;;;9.35;8.15;;;;;;;18.18;76.47;100260.22;2228740;40;20041;-85
2021/06/09 02:27:46;;;;;;;10.40;8.60;;;;;;;18.19;76.60;100253.81;2227231;40;20703;-86
2021/06/09 02:29:17;;;;;;;11.35;9.45;;;;;;;18.20;76.31;100250.06;2228892;40;20025;-86
2021/06/09 02:30:48;;;;;;;12.63;9.75;;;;;;;18.25;76.27;100254.91;2227378;40;20063;-86
2021/06/09 02:32:19;;;;;;;10.18;9.07;;;;;;;18.22;76.39;100244.47;2228673;40;20088;-85
2021/06/09 02:33:51;;;;;;;11.13;9.30;;;;;;;18.20;76.54;100244.66;2226867;40;20033;-86
2021/06/09 02:35:22;;;;;;;10.57;8.60;;;;;;;18.20;76.45;100246.50;2228285;40;20036;-85
2021/06/09 02:36:57;;;;;;;10.48;8.07;;;;;;;18.19;76.36;100247.53;2227369;40;20094;-86
2021/06/09 02:38:30;;;;;;;10.70;9.13;;;;;;;18.20;76.53;100252.78;2228731;40;20080;-85
2021/06/09 02:40:02;;;;;;;12.10;9.68;;;;;;;18.21;76.28;100251.75;2227312;40;20029;-85
2021/06/09 02:41:34;;;;;;;10.98;9.35;;;;;;;18.22;76.09;100250.72;2228661;40;20021;-85
2021/06/09 02:43:06;;;;;;;10.32;8.35;;;;;;;18.24;76.00;100248.66;2227433;40;20036;-86
2021/06/09 02:44:37;;;;;;;8.57;7.68;;;;;;;18.28;75.87;100250.97;2228645;40;20037;-85
2021/06/09 02:46:14;;;;;;;10.50;8.43;;;;;;;18.34;76.09;100247.50;2227380;40;20041;-84
2021/06/09 02:47:48;;;;;;;10.55;7.88;;;;;;;18.34;75.70;100258.31;2228809;40;20026;-85
2021/06/09 02:49:24;;;;;;;11.15;8.65;;;;;;;18.33;75.84;100251.22;2227261;40;20044;-86
2021/06/09 02:50:55;;;;;;;11.07;8.65;;;;;;;18.27;75.63;100252.00;2228674;40;20083;-85
2021/06/09 02:52:31;;;;;;;10.68;9.55;;;;;;;18.23;75.97;100257.78;2227359;40;20033;-85
2021/06/09 02:54:10;;;;;;;13.48;9.98;;;;;;;18.17;76.06;100253.16;2228785;40;20068;-86
2021/06/09 02:55:52;;;;;;;12.70;10.65;;;;;;;18.10;76.06;100249.53;2227791;40;20048;-85
2021/06/09 02:57:33;;;;;;;12.10;9.40;;;;;;;18.07;76.29;100247.19;2227418;40;20025;-84
2021/06/09 02:59:18;;;;;;;12.88;9.98;;;;;;;18.01;76.48;100245.25;2229352;40;20089;-86
2021/06/09 03:01:01;;;;;;;10.50;9.27;;;;;;;17.97;76.60;100254.75;2227700;40;20041;-87
2021/06/09 03:02:40;;;;;;;12.75;11.00;;;;;;;17.93;76.82;100252.41;2229123;40;20059;-85
2021/06/09 03:04:20;;;;;;;11.23;10.13;;;;;;;17.92;76.92;100248.03;2227893;40;20029;-84
2021/06/09 03:06:01;;;;;;;13.77;9.90;;;;;;;17.91;77.19;100251.75;2229112;40;20029;-85
2021/06/09 03:07:39;;;;;;;;;;;;;;;17.85;77.26;100248.97;2228319;40;20056;-84
2021/06/09 03:09:22;;;;;;;10.77;8.95;;;;;;;17.85;77.26;100246.25;2227686;40;19933;-85
2021/06/09 03:10:59;;;;;;;13.85;10.02;;;;;;;17.86;77.42;100243.34;2229048;40;20041;-84
2021/06/09 03:12:42;;;;;;;12.05;10.77;;;;;;;17.91;77.38;100246.34;2227566;40;20040;-86
2021/06/09 03:15:09;;;;;;;13.65;9.73;;;;;;;17.91;77.80;100245.50;2228841;40;20056;-85
2021/06/09 03:16:25;;;;;;;11.88;10.65;;;;;;;17.88;77.56;100254.84;2227654;40;20033;-86
2021/06/09 03:18:03;;;;;;;10.95;9.45;;;;;;;17.80;77.69;100243.28;2229108;40;20025;-84
2021/06/09 03:19:40;;;;;;;14.93;12.55;;;;;;;17.78;78.18;100247.03;2227646;40;20056;-84
2021/06/09 03:21:14;;;;;;;12.80;11.25;;;;;;;17.78;78.39;100251.56;2227735;40;20041;-87
2021/06/09 03:22:56;;;;;;;14.77;11.18;;;;;;;17.75;78.37;100243.84;2228457;40;20032;-84
2021/06/09 03:24:36;;;;;;;15.35;11.45;;;;;;;17.71;78.52;100251.47;2226794;40;20022;-85
2021/06/09 03:26:12;;;;;;;14.90;11.73;;;;;;;17.70;78.83;100238.16;2228769;40;20041;-84
2021/06/09 03:27:48;;;;;;;10.80;9.68;;;;;;;17.70;78.82;100246.25;2227037;40;20049;-85
2021/06/09 03:29:27;;;;;;;12.43;10.73;;;;;;;17.70;78.56;100244.41;2228512;40;20032;-85
2021/06/09 03:31:01;;;;;;;12.57;11.20;;;;;;;17.67;78.83;100236.66;2226936;40;20053;-84
2021/06/09 03:32:37;;;;;;;15.85;10.50;;;;;;;17.64;78.81;100244.31;2231182;40;20024;-85
2021/06/09 03:34:15;;;;;;;10.75;9.50;;;;;;;17.68;79.16;100242.91;2233268;40;20032;-85
2021/06/09 03:35:53;;;;;;;14.48;12.18;;;;;;;17.71;78.97;100237.13;2234717;40;20041;-85
2021/06/09 03:37:26;;;;;;;14.63;12.70;;;;;;;17.71;78.78;100239.84;2233486;40;20033;-85
2021/06/09 03:39:02;;;;;;;14.25;11.32;;;;;;;17.72;78.95;100239.63;2234963;40;20032;-85
2021/06/09 03:40:38;;;;;;;13.70;11.20;;;;;;;17.73;78.57;100244.03;2226984;40;20043;-84
2021/06/09 03:42:13;;;;;;;11.57;10.38;;;;;;;17.73;78.69;100237.78;2226949;40;20029;-85
2021/06/09 03:43:50;;;;;;;13.75;11.07;;;;;;;17.74;78.63;100242.19;2228350;40;20041;-84
2021/06/09 03:45:25;;;;;;;11.25;10.10;;;;;;;17.75;78.88;100241.16;2227008;40;20029;-84
2021/06/09 03:46:57;;;;;;;12.45;10.23;;;;;;;17.74;78.73;100243.00;2228139;40;20041;-84
2021/06/09 03:48:41;;;;;;;15.52;11.82;;;;;;;17.73;78.52;100235.91;2225490;40;21792;-84
2021/06/09 03:50:16;;;;;;;13.23;11.82;;;;;;;17.74;78.59;100244.88;2228013;40;20143;-83
2021/06/09 03:51:48;;;;;;;14.68;11.10;;;;;;;17.74;78.57;100239.47;2226697;40;20029;-84
2021/06/09 03:53:20;;;;;;;12.07;10.55;;;;;;;17.76;78.67;100234.69;2228065;40;20037;-84
2021/06/09 03:54:56;;;;;;;12.18;10.50;;;;;;;17.80;78.83;100238.72;2225992;40;20029;-85
2021/06/09 03:56:31;;;;;;;11.43;9.13;;;;;;;17.82;78.35;100241.22;2227683;40;20040;-86
2021/06/09 03:58:08;;;;;;;12.25;10.52;;;;;;;17.86;78.29;100240.66;2226437;40;20083;-84
2021/06/09 03:59:40;;;;;;;11.27;10.18;;;;;;;17.92;78.29;100234.50;2227590;40;20041;-85
2021/06/09 04:01:13;;;;;;;11.65;10.15;;;;;;;17.93;78.01;100236.19;2226254;40;20057;-84
2021/06/09 04:02:46;;;;;;;14.43;9.70;;;;;;;18.00;78.02;100230.06;2227263;40;20345;-83
2021/06/09 04:04:21;;;;;;;12.90;11.02;;;;;;;18.07;77.84;100230.97;2226489;40;20043;-85
2021/06/09 04:05:54;;;;;;;10.90;9.68;;;;;;;18.09;77.47;100237.03;2227877;40;20065;-85
2021/06/09 04:07:27;;;;;;;14.05;10.68;;;;;;;18.09;77.59;100237.03;2226364;40;20037;-85
2021/06/09 04:09:01;;;;;;;13.88;10.27;;;;;;;18.10;77.43;100230.59;2228087;40;20085;-85
2021/06/09 04:10:34;;;;;;;10.73;9.57;;;;;;;18.15;77.28;100244.38;2226556;40;20116;-86
2021/06/09 04:12:10;;;;;;;11.43;9.88;;;;;;;18.19;77.15;100242.97;2227862;40;20189;-86
2021/06/09 04:13:42;;;;;;;10.75;8.98;;;;;;;18.23;77.18;100244.25;2226485;40;20029;-86
2021/06/09 04:15:14;;;;;;;11.95;9.60;;;;;;;18.22;76.91;100242.59;2226371;40;20048;-87
2021/06/09 04:16:46;;;;;;;11.93;10.15;;;;;;;18.27;76.92;100243.88;2227880;40;20037;-86
2021/06/09 04:18:19;;;;;;;11.00;9.88;;;;;;;18.26;76.67;100236.78;2226644;40;20025;-86
2021/06/09 04:19:52;;;;;;;11.57;10.20;;;;;;;18.28;76.44;100240.16;2227812;40;20287;-86
2021/06/09 04:21:25;;;;;;;12.43;10.40;;;;;;;18.31;76.40;100237.06;2226433;40;20013;-85
2021/06/09 04:22:56;;;;;;;13.85;11.32;;;;;;;18.31;76.58;100242.50;2227834;40;20044;-84
2021/06/09 04:24:30;;;;;;;11.65;10.45;;;;;;;18.28;76.52;100240.97;2226448;40;20033;-85
2021/06/09 04:26:02;;;;;;;15.15;11.40;;;;;;;18.27;76.70;100238.47;2227924;40;20029;-85
2021/06/09 04:27:38;;;;;;;12.30;10.80;;;;;;;18.24;76.66;100245.94;2226340;40;20044;-86
2021/06/09 04:29:10;;;;;;;11.05;9.90;;;;;;;18.26;76.85;100242.22;2227806;40;20021;-85
2021/06/09 04:30:42;;;;;;;12.18;10.85;;;;;;;18.29;76.93;100241.84;2226421;40;20649;-85
2021/06/09 04:32:14;;;;;;;17.25;12.05;;;;;;;18.29;76.84;100248.06;2227864;40;20045;-86
2021/06/09 04:33:46;;;;;;;13.02;11.27;;;;;;;18.26;76.95;100237.66;2226343;40;20036;-87
2021/06/09 04:35:18;;;;;;;13.38;10.70;;;;;;;18.22;77.11;100248.03;2227781;40;20013;-86
2021/06/09 04:36:53;;;;;;;11.98;10.70;;;;;;;18.27;77.00;100254.72;2226415;40;20039;-85
2021/06/09 04:38:25;;;;;;;11.02;9.70;;;;;;;18.31;76.74;100250.59;2234145;40;20028;-85
2021/06/09 04:39:56;;;;;;;12.25;9.02;;;;;;;18.35;76.83;100252.75;2232772;40;20024;-87
2021/06/09 04:41:27;;;;;;;12.10;9.40;;;;;;;18.38;76.72;100244.22;2234227;40;20031;-85
2021/06/09 04:43:01;;;;;;;14.65;11.18;;;;;;;18.43;76.29;100250.94;2232563;40;20042;-86
2021/06/09 04:44:32;;;;;;;13.35;9.88;;;;;;;18.45;76.45;100247.00;2233773;40;20029;-85
2021/06/09 04:46:04;;;;;;;13.18;11.55;;;;;;;18.47;75.96;100250.38;2232610;40;20029;-84
2021/06/09 04:47:35;;;;;;;12.75;10.40;;;;;;;18.49;76.35;100250.16;2234004;40;20037;-86
2021/06/09 04:49:07;;;;;;;11.10;9.90;;;;;;;18.48;76.27;100252.03;2232440;40;20033;-86
2021/06/09 04:50:38;;;;;;;15.55;9.95;;;;;;;18.49;76.06;100253.72;2234049;40;20044;-85
2021/06/09 04:52:11;;;;;;;13.40;9.85;;;;;;;18.53;75.99;100252.28;2226213;40;20103;-86
2021/06/09 04:53:42;;;;;;;14.73;10.60;;;;;;;18.58;76.19;100254.41;2227656;40;20036;-86
2021/06/09 04:55:14;;;;;;;11.27;9.35;;;;;;;18.59;75.85;100256.09;2226128;40;20242;-86
2021/06/09 04:56:45;;;;;;;11.57;9.85;;;;;;;18.59;75.85;100253.41;2227740;40;20033;-85
2021/06/09 04:58:19;;;;;;;10.52;9.40;;;;;;;18.61;75.78;100248.63;2226346;40;20041;-85
2021/06/09 04:59:51;;;;;;;12.57;10.30;;;;;;;18.62;75.67;100253.03;2227652;40;20136;-88
2021/06/09 05:01:22;;;;;;;12.75;9.35;;;;;;;18.64;75.78;100252.81;2226148;40;20658;-86
2021/06/09 05:02:53;;;;;;;11.73;9.02;;;;;;;18.66;75.70;100253.47;2227916;40;20025;-87
2021/06/09 05:04:25;;;;;;;12.55;8.95;;;;;;;18.68;75.57;100254.13;2225908;40;20579;-86
2021/06/09 05:05:56;;;;;;;10.98;8.85;;;;;;;18.70;75.31;100254.78;2227685;40;20029;-88
2021/06/09 05:07:28;;;;;;;10.35;8.20;;;;;;;18.73;75.28;100258.97;2226225;40;20093;-86
2021/06/09 05:08:59;;;;;;;12.43;9.43;;;;;;;18.72;75.24;100255.41;2227751;40;20045;-85
2021/06/09 05:10:30;;;;;;;13.02;9.75;;;;;;;18.74;75.29;100256.03;2225231;40;20049;-84
2021/06/09 05:12:05;;;;;;;9.80;8.70;;;;;;;18.78;75.12;100260.06;2225243;40;20037;-85
2021/06/09 05:13:43;;;;;;;14.10;11.45;;;;;;;18.81;75.08;100256.94;2225157;40;20033;-84
2021/06/09 05:15:15;;;;;;;14.65;12.02;;;;;;;18.83;74.85;100263.00;2224794;40;20484;-84
2021/06/09 05:16:48;;;;;;;13.93;11.32;;;;;;;18.74;75.28;100255.22;2226632;40;20033;-86
2021/06/09 05:18:23;;;;;;;12.50;11.20;;;;;;;18.65;75.17;100249.94;2226029;40;20037;-85
2021/06/09 05:19:56;;;;;;;12.77;10.43;;;;;;;18.54;75.92;100256.69;2227384;40;20041;-83
2021/06/09 05:21:34;;;;;;;14.93;12.00;;;;;;;18.47;75.94;100252.22;2226138;40;20091;-84
2021/06/09 05:23:09;;;;;;;12.25;10.95;;;;;;;18.43;76.02;100248.22;2228414;40;20029;-85
2021/06/09 05:24:42;;;;;;;12.95;11.32;;;;;;;18.42;76.34;100263.63;2227100;40;20048;-85
2021/06/09 05:26:15;;;;;;;13.93;12.27;;;;;;;18.38;76.45;100256.94;2227955;40;20029;-84
2021/06/09 05:27:48;;;;;;;13.60;12.18;;;;;;;18.36;76.86;100267.09;2226800;40;20737;-86
2021/06/09 05:29:21;;;;;;;12.80;10.60;;;;;;;18.33;76.70;100264.75;2228049;40;20025;-85
2021/06/09 05:30:54;;;;;;;14.35;12.80;;;;;;;18.27;76.82;100263.69;2226431;40;20029;-85
2021/06/09 05:32:27;;;;;;;15.02;12.90;;;;;;;18.19;77.10;100264.63;2228669;40;20454;-85
2021/06/09 05:34:00;;;;;;;12.00;10.77;;;;;;;18.16;77.45;100265.00;2227179;40;20053;-86
2021/06/09 05:35:33;;;;;;;17.05;13.95;;;;;;;18.17;77.46;100272.09;2228341;40;20091;-85
2021/06/09 05:37:04;;;;;;;17.95;14.02;;;;;;;18.17;77.23;100272.09;2227083;40;20036;-85
2021/06/09 05:38:37;;;;;;;16.77;14.88;;;;;;;18.15;77.23;100268.72;2228431;40;20047;-86
2021/06/09 05:40:10;;;;;;;17.83;14.30;;;;;;;18.15;77.25;100266.00;2227340;40;20033;-85
2021/06/09 05:41:41;;;;;;;18.10;14.90;;;;;;;18.16;77.14;100272.28;2228535;40;20029;-87
2021/06/09 05:43:12;;;;;;;20.35;17.13;;;;;;;18.14;77.28;100267.03;2227172;40;20036;-86
2021/06/09 05:44:48;;;;;;;15.02;13.43;;;;;;;18.15;77.30;100263.31;2228617;40;20040;-86
2021/06/09 05:46:19;;;;;;;17.50;14.00;;;;;;;18.20;77.27;100270.84;2227192;40;20037;-85
2021/06/09 05:47:51;;;;;;;15.98;14.27;;;;;;;18.26;77.27;100269.25;2228686;40;20033;-85
2021/06/09 05:49:24;;;;;;;20.05;15.80;;;;;;;18.26;76.80;100263.84;2227417;40;20044;-86
2021/06/09 05:50:57;;;;;;;20.17;16.33;;;;;;;18.26;76.96;100269.25;2228534;40;20554;-87
2021/06/09 05:52:28;;;;;;;16.98;15.18;;;;;;;18.22;77.06;100269.66;2226851;40;20037;-88
2021/06/09 05:53:59;;;;;;;19.02;17.05;;;;;;;18.23;76.97;100268.59;2228298;40;20044;-86
2021/06/09 05:55:33;;;;;;;19.38;16.40;;;;;;;18.24;76.82;100267.59;2227033;40;20090;-86
2021/06/09 05:57:08;;;;;;;19.08;15.70;;;;;;;18.28;76.80;100256.38;2228604;40;20036;-87
2021/06/09 05:58:40;;;;;;;20.85;16.48;;;;;;;18.33;76.87;100264.75;2226994;40;20555;-85
2021/06/09 06:00:14;;;;;;;20.90;16.50;;;;;;;18.34;76.69;100261.03;2226698;40;20036;-83
2021/06/09 06:01:46;;;;;;;17.73;15.73;;;;;;;18.35;76.88;100262.72;2228198;40;20053;-85
2021/06/09 06:03:17;;;;;;;14.93;13.32;;;;;;;18.33;77.01;100259.34;2226933;40;20029;-85
2021/06/09 06:04:49;;;;;;;17.30;14.38;;;;;;;18.33;76.92;100265.63;2228502;40;20052;-87
2021/06/09 06:06:21;;;;;;;16.38;14.02;;;;;;;18.34;76.90;100266.44;2227096;40;20033;-87
2021/06/09 06:07:52;;;;;;;17.13;12.32;;;;;;;18.33;77.13;100262.06;2228694;40;20179;-86
2021/06/09 06:09:23;;;;;;;15.68;13.65;;;;;;;18.42;76.88;100268.22;2227152;40;20079;-85
2021/06/09 06:10:55;;;;;;;17.25;15.25;;;;;;;18.49;76.62;100259.13;2227927;40;20044;-85
2021/06/09 06:12:27;;;;;;;15.70;13.80;;;;;;;18.53;76.64;100265.81;2231764;40;20028;-86
2021/06/09 06:14:03;;;;;;;17.35;13.13;;;;;;;18.53;76.34;100255.00;2234919;40;20037;-86
2021/06/09 06:15:36;;;;;;;13.70;12.15;;;;;;;18.63;76.36;100268.25;2233542;40;20036;-86
2021/06/09 06:17:08;;;;;;;15.00;12.75;;;;;;;18.69;76.05;100263.94;2234699;40;20033;-87
2021/06/09 06:18:41;;;;;;;14.63;11.75;;;;;;;18.71;75.72;100268.09;2233024;40;20055;-86
2021/06/09 06:20:16;;;;;;;12.38;10.73;;;;;;;18.73;75.69;100265.19;2234849;40;20025;-86
2021/06/09 06:21:49;;;;;;;18.27;14.43;;;;;;;18.74;75.90;100269.59;2233289;40;20037;-86
2021/06/09 06:23:21;;;;;;;15.88;12.85;;;;;;;18.72;75.70;100268.94;2228283;40;20723;-84
2021/06/09 06:24:53;;;;;;;13.82;12.40;;;;;;;18.73;75.69;100265.19;2226332;40;20041;-85
2021/06/09 06:26:24;;;;;;;16.77;15.05;;;;;;;18.78;75.82;100279.00;2228356;40;20037;-84
2021/06/09 06:27:57;;;;;;;12.68;11.38;;;;;;;18.86;75.55;100273.47;2226953;40;20115;-86
2021/06/09 06:29:28;;;;;;;14.35;11.38;;;;;;;18.98;75.12;100276.50;2228426;40;20033;-86
2021/06/09 06:31:01;;;;;;;16.38;13.95;;;;;;;19.09;74.83;100268.91;2226789;40;20040;-85
2021/06/09 06:32:34;;;;;;;15.25;13.65;;;;;;;19.17;74.54;100280.44;2227748;40;20472;-85
2021/06/09 06:34:06;;;;;;;15.57;13.98;;;;;;;19.25;74.08;100273.19;2226706;40;20888;-84
2021/06/09 06:35:38;;;;;;;18.08;16.27;;;;;;;19.33;74.09;100270.34;2228604;40;20028;-85
2021/06/09 06:37:10;;;;;;;18.58;16.60;;;;;;;19.36;73.86;100272.66;2227169;40;20669;-86
2021/06/09 06:38:41;;;;;;;16.92;15.07;;;;;;;19.41;74.05;100272.91;2227969;40;20021;-85
2021/06/09 06:40:13;;;;;;;21.95;19.67;;;;;;;19.54;73.64;100268.63;2226127;40;20053;-86
2021/06/09 06:41:45;;;;;;;21.02;18.58;;;;;;;19.65;73.08;100273.47;2228162;40;20036;-85
2021/06/09 06:43:17;;;;;;;18.10;16.20;;;;;;;19.70;72.76;100268.28;2227036;40;20037;-87
2021/06/09 06:44:49;;;;;;;18.60;14.05;;;;;;;19.82;72.82;100271.28;2228196;40;20044;-85
2021/06/09 06:46:24;;;;;;;20.88;15.77;;;;;;;19.95;72.44;100263.25;2227095;40;20033;-87
2021/06/09 06:47:55;;;;;;;17.48;14.45;;;;;;;20.08;71.82;100267.88;2228218;40;20029;-87
2021/06/09 06:49:29;;;;;;;14.20;12.60;;;;;;;20.20;71.37;100259.19;2226906;40;20895;-86
2021/06/09 06:51:01;;;;;;;15.90;13.80;;;;;;;20.34;70.77;100265.47;2228362;40;20108;-85
2021/06/09 06:52:34;;;;;;;12.77;11.48;;;;;;;20.40;70.92;100265.47;2226694;40;20044;-85
2021/06/09 06:54:05;;;;;;;14.82;12.38;;;;;;;20.52;70.40;100262.19;2228223;40;20032;-87
2021/06/09 06:55:37;;;;;;;14.27;11.70;;;;;;;20.63;69.74;100256.16;2226934;40;20079;-84
2021/06/09 06:57:08;;;;;;;12.27;10.35;;;;;;;20.75;69.32;100258.28;2227129;40;20048;-88
2021/06/09 06:58:39;;;;;;;16.73;14.07;;;;;;;20.86;68.52;100247.63;2216365;40;20092;-86
2021/06/09 07:00:14;;;;;;;16.20;14.48;;;;;;;20.95;67.99;100256.44;2224993;40;20515;-84
2021/06/09 07:01:47;;;;;;;16.80;12.05;;;;;;;20.96;67.96;100249.09;2228501;40;20053;-84
2021/06/09 07:03:21;;;;;;;12.40;11.10;;;;;;;21.08;67.90;100243.88;2226556;40;20096;-88
2021/06/09 07:04:52;;;;;;;13.80;11.80;;;;;;;21.22;67.22;100252.88;2227776;40;20029;-86
2021/06/09 07:06:25;;;;;;;14.70;11.57;;;;;;;21.37;66.77;100247.19;2226327;40;20025;-85